sensor_id;sensor_type;location;lat;lon;timestamp;temperature;humidity
55365;DHT22;41245;45.384;20.390;2023-03-01T00:01:13;153.70;2252.80
55365;DHT22;41245;45.384;20.390;2023-03-01T00:03:39;128.90;2252.80
55365;DHT22;41245;45.384;20.390;2023-03-01T00:06:06;153.70;2252.80
55365;DHT22;41245;45.384;20.390;2023-03-01T00:08:32;153.70;2252.80
55365;DHT22;41245;45.384;20.390;2023-03-01T00:11:26;153.80;2252.80
55365;DHT22;41245;45.384;20.390;2023-03-01T00:13:54;153.70;2252.80
55365;DHT22;41245;45.384;20.390;2023-03-01T00:16:36;153.70;2252.80
55365;DHT22;41245;45.384;20.390;2023-03-01T00:19:02;153.80;2252.80
55365;DHT22;41245;45.384;20.390;2023-03-01T00:21:28;128.90;2252.80
55365;DHT22;41245;45.384;20.390;2023-03-01T00:23:54;153.70;2252.80
55365;DHT22;41245;45.384;20.390;2023-03-01T00:26:22;128.90;2252.80
55365;DHT22;41245;45.384;20.390;2023-03-01T00:28:48;153.70;2252.80
55365;DHT22;41245;45.384;20.390;2023-03-01T00:31:17;153.60;2252.80
55365;DHT22;41245;45.384;20.390;2023-03-01T00:33:44;153.80;2252.80
55365;DHT22;41245;45.384;20.390;2023-03-01T00:36:12;153.70;2252.80
55365;DHT22;41245;45.384;20.390;2023-03-01T00:38:44;153.80;2252.80
55365;DHT22;41245;45.384;20.390;2023-03-01T00:41:13;153.80;2252.80
55365;DHT22;41245;45.384;20.390;2023-03-01T00:43:39;153.70;2252.80
55365;DHT22;41245;45.384;20.390;2023-03-01T00:46:09;153.60;2252.80
55365;DHT22;41245;45.384;20.390;2023-03-01T00:48:35;153.70;2252.80
55365;DHT22;41245;45.384;20.390;2023-03-01T00:51:05;153.70;2252.80
55365;DHT22;41245;45.384;20.390;2023-03-01T00:53:31;128.90;2252.80
55365;DHT22;41245;45.384;20.390;2023-03-01T00:55:58;153.70;2252.80
55365;DHT22;41245;45.384;20.390;2023-03-01T00:58:24;153.80;2252.80
55365;DHT22;41245;45.384;20.390;2023-03-01T01:00:49;153.80;2252.80
55365;DHT22;41245;45.384;20.390;2023-03-01T01:03:15;153.90;2252.80
55365;DHT22;41245;45.384;20.390;2023-03-01T01:05:41;153.70;2252.80
55365;DHT22;41245;45.384;20.390;2023-03-01T01:08:06;128.90;2252.80
55365;DHT22;41245;45.384;20.390;2023-03-01T01:10:34;153.80;2252.80
55365;DHT22;41245;45.384;20.390;2023-03-01T01:13:00;128.90;2252.80
55365;DHT22;41245;45.384;20.390;2023-03-01T01:15:26;128.80;2252.80
55365;DHT22;41245;45.384;20.390;2023-03-01T01:17:52;128.60;2252.80
55365;DHT22;41245;45.384;20.390;2023-03-01T01:20:18;128.50;2252.80
55365;DHT22;41245;45.384;20.390;2023-03-01T01:22:43;128.70;2252.80
55365;DHT22;41245;45.384;20.390;2023-03-01T01:25:09;128.60;2252.80
55365;DHT22;41245;45.384;20.390;2023-03-01T01:27:36;128.80;2252.80
55365;DHT22;41245;45.384;20.390;2023-03-01T01:30:03;128.70;2252.80
55365;DHT22;41245;45.384;20.390;2023-03-01T01:32:29;128.70;2252.80
55365;DHT22;41245;45.384;20.390;2023-03-01T01:34:54;128.70;2252.80
55365;DHT22;41245;45.384;20.390;2023-03-01T01:37:20;128.80;2252.80
55365;DHT22;41245;45.384;20.390;2023-03-01T01:39:46;128.70;2252.80
55365;DHT22;41245;45.384;20.390;2023-03-01T01:42:18;128.50;2252.80
55365;DHT22;41245;45.384;20.390;2023-03-01T01:44:47;128.60;2252.80
55365;DHT22;41245;45.384;20.390;2023-03-01T01:47:18;128.70;2252.80
55365;DHT22;41245;45.384;20.390;2023-03-01T01:49:54;128.60;2252.80
55365;DHT22;41245;45.384;20.390;2023-03-01T01:52:30;128.70;2252.80
55365;DHT22;41245;45.384;20.390;2023-03-01T01:55:07;128.90;2252.80
55365;DHT22;41245;45.384;20.390;2023-03-01T01:57:37;128.80;2252.80
55365;DHT22;41245;45.384;20.390;2023-03-01T02:00:19;128.70;2252.80
55365;DHT22;41245;45.384;20.390;2023-03-01T02:02:47;153.60;2252.80
55365;DHT22;41245;45.384;20.390;2023-03-01T02:05:48;153.70;2252.80
55365;DHT22;41245;45.384;20.390;2023-03-01T02:08:17;153.80;2252.80
55365;DHT22;41245;45.384;20.390;2023-03-01T02:10:44;153.70;2252.80
55365;DHT22;41245;45.384;20.390;2023-03-01T02:13:10;153.70;2252.80
55365;DHT22;41245;45.384;20.390;2023-03-01T02:15:38;128.90;2252.80
55365;DHT22;41245;45.384;20.390;2023-03-01T02:18:05;128.90;2252.80
55365;DHT22;41245;45.384;20.390;2023-03-01T02:20:47;153.70;2252.80
55365;DHT22;41245;45.384;20.390;2023-03-01T02:23:14;153.70;2252.80
55365;DHT22;41245;45.384;20.390;2023-03-01T02:25:55;153.70;2252.80
55365;DHT22;41245;45.384;20.390;2023-03-01T02:28:38;153.80;2252.80
55365;DHT22;41245;45.384;20.390;2023-03-01T02:31:07;128.90;2252.80
55365;DHT22;41245;45.384;20.390;2023-03-01T02:33:53;128.90;2252.80
55365;DHT22;41245;45.384;20.390;2023-03-01T02:36:29;153.60;2252.80
55365;DHT22;41245;45.384;20.390;2023-03-01T02:38:58;153.90;2252.80
55365;DHT22;41245;45.384;20.390;2023-03-01T02:41:29;153.80;2252.80
55365;DHT22;41245;45.384;20.390;2023-03-01T02:43:56;153.70;2252.80
55365;DHT22;41245;45.384;20.390;2023-03-01T02:46:25;153.90;2252.80
55365;DHT22;41245;45.384;20.390;2023-03-01T02:48:54;154.00;2252.80
55365;DHT22;41245;45.384;20.390;2023-03-01T02:51:41;154.00;2252.80
55365;DHT22;41245;45.384;20.390;2023-03-01T02:54:23;154.10;2252.80
55365;DHT22;41245;45.384;20.390;2023-03-01T02:56:51;154.20;2252.80
55365;DHT22;41245;45.384;20.390;2023-03-01T02:59:20;154.00;2252.80
55365;DHT22;41245;45.384;20.390;2023-03-01T03:01:46;154.20;2252.80
55365;DHT22;41245;45.384;20.390;2023-03-01T03:04:17;154.30;2252.80
55365;DHT22;41245;45.384;20.390;2023-03-01T03:06:44;154.50;2252.80
55365;DHT22;41245;45.384;20.390;2023-03-01T03:09:12;154.40;2252.80
55365;DHT22;41245;45.384;20.390;2023-03-01T03:11:38;154.30;2252.80
55365;DHT22;41245;45.384;20.390;2023-03-01T03:14:07;154.30;2252.80
55365;DHT22;41245;45.384;20.390;2023-03-01T03:16:58;154.50;2252.80
55365;DHT22;41245;45.384;20.390;2023-03-01T03:19:23;179.20;2252.80
55365;DHT22;41245;45.384;20.390;2023-03-01T03:21:49;154.50;2252.80
55365;DHT22;41245;45.384;20.390;2023-03-01T03:24:15;154.50;2252.80
55365;DHT22;41245;45.384;20.390;2023-03-01T03:26:40;154.50;2252.80
55365;DHT22;41245;45.384;20.390;2023-03-01T03:29:06;154.20;2252.80
55365;DHT22;41245;45.384;20.390;2023-03-01T03:31:31;154.20;2252.80
55365;DHT22;41245;45.384;20.390;2023-03-01T03:33:57;154.00;2252.80
55365;DHT22;41245;45.384;20.390;2023-03-01T03:36:24;154.00;2252.80
55365;DHT22;41245;45.384;20.390;2023-03-01T03:38:50;153.90;2252.80
55365;DHT22;41245;45.384;20.390;2023-03-01T03:41:16;154.00;2252.80
55365;DHT22;41245;45.384;20.390;2023-03-01T03:43:42;154.10;2252.80
55365;DHT22;41245;45.384;20.390;2023-03-01T03:46:10;154.40;2252.80
55365;DHT22;41245;45.384;20.390;2023-03-01T03:48:38;154.30;2252.80
55365;DHT22;41245;45.384;20.390;2023-03-01T03:51:05;154.50;2252.80
55365;DHT22;41245;45.384;20.390;2023-03-01T03:53:31;154.30;2252.80
55365;DHT22;41245;45.384;20.390;2023-03-01T03:55:57;154.40;2252.80
55365;DHT22;41245;45.384;20.390;2023-03-01T03:58:24;154.50;2252.80
55365;DHT22;41245;45.384;20.390;2023-03-01T04:00:53;154.50;2252.80
55365;DHT22;41245;45.384;20.390;2023-03-01T04:03:19;154.30;2252.80
55365;DHT22;41245;45.384;20.390;2023-03-01T04:05:46;154.20;2252.80
55365;DHT22;41245;45.384;20.390;2023-03-01T04:08:12;154.20;2252.80
55365;DHT22;41245;45.384;20.390;2023-03-01T04:10:43;154.20;2252.80
55365;DHT22;41245;45.384;20.390;2023-03-01T04:13:12;154.10;2252.80
55365;DHT22;41245;45.384;20.390;2023-03-01T04:15:38;153.90;2252.80
55365;DHT22;41245;45.384;20.390;2023-03-01T04:18:04;153.90;2252.80
55365;DHT22;41245;45.384;20.390;2023-03-01T04:20:32;154.10;2252.80
55365;DHT22;41245;45.384;20.390;2023-03-01T04:23:14;154.10;2252.80
55365;DHT22;41245;45.384;20.390;2023-03-01T04:25:58;154.30;2252.80
55365;DHT22;41245;45.384;20.390;2023-03-01T04:31:03;154.20;2252.80
55365;DHT22;41245;45.384;20.390;2023-03-01T04:33:38;154.40;2252.80
55365;DHT22;41245;45.384;20.390;2023-03-01T04:36:05;154.30;2252.80
55365;DHT22;41245;45.384;20.390;2023-03-01T04:38:32;154.30;2252.80
55365;DHT22;41245;45.384;20.390;2023-03-01T04:40:57;154.30;2252.80
55365;DHT22;41245;45.384;20.390;2023-03-01T04:43:23;154.30;2252.80
55365;DHT22;41245;45.384;20.390;2023-03-01T04:45:48;154.50;2252.80
55365;DHT22;41245;45.384;20.390;2023-03-01T04:48:14;154.50;2252.80
55365;DHT22;41245;45.384;20.390;2023-03-01T04:50:40;154.40;2252.80
55365;DHT22;41245;45.384;20.390;2023-03-01T04:53:05;154.40;2252.80
55365;DHT22;41245;45.384;20.390;2023-03-01T04:55:31;154.30;2252.80
55365;DHT22;41245;45.384;20.390;2023-03-01T04:57:56;154.30;2252.80
55365;DHT22;41245;45.384;20.390;2023-03-01T05:00:23;154.50;2252.80
55365;DHT22;41245;45.384;20.390;2023-03-01T05:05:19;179.20;2252.80
55365;DHT22;41245;45.384;20.390;2023-03-01T05:07:45;154.50;2252.80
55365;DHT22;41245;45.384;20.390;2023-03-01T05:10:11;154.00;2252.80
55365;DHT22;41245;45.384;20.390;2023-03-01T05:12:37;154.00;2252.80
55365;DHT22;41245;45.384;20.390;2023-03-01T05:15:03;154.20;2252.80
55365;DHT22;41245;45.384;20.390;2023-03-01T05:17:33;154.30;2252.80
55365;DHT22;41245;45.384;20.390;2023-03-01T05:19:59;154.40;2252.80
55365;DHT22;41245;45.384;20.390;2023-03-01T05:22:25;154.50;2252.80
55365;DHT22;41245;45.384;20.390;2023-03-01T05:24:51;179.20;2252.80
55365;DHT22;41245;45.384;20.390;2023-03-01T05:27:16;179.30;2252.80
55365;DHT22;41245;45.384;20.390;2023-03-01T05:29:42;179.30;2252.80
55365;DHT22;41245;45.384;20.390;2023-03-01T05:32:07;179.40;2252.80
55365;DHT22;41245;45.384;20.390;2023-03-01T05:34:35;179.40;2252.80
55365;DHT22;41245;45.384;20.390;2023-03-01T05:37:01;179.50;2252.80
55365;DHT22;41245;45.384;20.390;2023-03-01T05:39:29;179.50;2252.80
55365;DHT22;41245;45.384;20.390;2023-03-01T05:42:00;179.60;2252.80
55365;DHT22;41245;45.384;20.390;2023-03-01T05:44:27;179.70;2252.80
55365;DHT22;41245;45.384;20.390;2023-03-01T05:46:53;179.80;2252.80
55365;DHT22;41245;45.384;20.390;2023-03-01T05:49:19;179.80;2252.80
55365;DHT22;41245;45.384;20.390;2023-03-01T05:51:50;179.80;2252.80
55365;DHT22;41245;45.384;20.390;2023-03-01T05:54:16;179.80;2252.80
55365;DHT22;41245;45.384;20.390;2023-03-01T05:56:42;179.80;2252.80
55365;DHT22;41245;45.384;20.390;2023-03-01T05:59:08;179.80;2252.80
55365;DHT22;41245;45.384;20.390;2023-03-01T06:01:34;179.80;2252.80
55365;DHT22;41245;45.384;20.390;2023-03-01T06:04:00;179.90;2252.80
55365;DHT22;41245;45.384;20.390;2023-03-01T06:06:26;179.80;2252.80
55365;DHT22;41245;45.384;20.390;2023-03-01T06:08:52;179.80;2252.80
55365;DHT22;41245;45.384;20.390;2023-03-01T06:11:18;179.80;2252.80
55365;DHT22;41245;45.384;20.390;2023-03-01T06:13:44;179.60;2252.80
55365;DHT22;41245;45.384;20.390;2023-03-01T06:16:10;179.80;2252.80
55365;DHT22;41245;45.384;20.390;2023-03-01T06:18:37;179.60;2252.80
55365;DHT22;41245;45.384;20.390;2023-03-01T06:21:04;179.60;2252.80
55365;DHT22;41245;45.384;20.390;2023-03-01T06:23:30;179.60;2252.80
55365;DHT22;41245;45.384;20.390;2023-03-01T06:25:56;179.30;2252.80
55365;DHT22;41245;45.384;20.390;2023-03-01T06:28:21;179.40;2252.80
55365;DHT22;41245;45.384;20.390;2023-03-01T06:30:48;179.40;2252.80
55365;DHT22;41245;45.384;20.390;2023-03-01T06:33:14;179.40;2252.80
55365;DHT22;41245;45.384;20.390;2023-03-01T06:35:40;154.50;2252.80
55365;DHT22;41245;45.384;20.390;2023-03-01T06:38:06;154.50;2252.80
55365;DHT22;41245;45.384;20.390;2023-03-01T06:40:32;179.30;2252.80
55365;DHT22;41245;45.384;20.390;2023-03-01T06:42:58;179.30;2252.80
55365;DHT22;41245;45.384;20.390;2023-03-01T06:45:24;179.30;2252.80
55365;DHT22;41245;45.384;20.390;2023-03-01T06:47:50;154.50;2252.80
55365;DHT22;41245;45.384;20.390;2023-03-01T06:50:16;179.20;2252.80
55365;DHT22;41245;45.384;20.390;2023-03-01T06:52:43;179.20;2252.80
55365;DHT22;41245;45.384;20.390;2023-03-01T06:55:11;179.50;2252.80
55365;DHT22;41245;45.384;20.390;2023-03-01T06:57:37;179.30;2252.80
55365;DHT22;41245;45.384;20.390;2023-03-01T07:00:06;179.30;2252.80
55365;DHT22;41245;45.384;20.390;2023-03-01T07:02:32;179.30;2252.80
55365;DHT22;41245;45.384;20.390;2023-03-01T07:04:58;179.30;2252.80
55365;DHT22;41245;45.384;20.390;2023-03-01T07:07:23;179.50;2252.80
55365;DHT22;41245;45.384;20.390;2023-03-01T07:09:49;179.60;2252.80
55365;DHT22;41245;45.384;20.390;2023-03-01T07:12:15;179.50;2252.80
55365;DHT22;41245;45.384;20.390;2023-03-01T07:14:43;179.40;2252.80
55365;DHT22;41245;45.384;20.390;2023-03-01T07:17:09;179.50;2252.80
55365;DHT22;41245;45.384;20.390;2023-03-01T07:19:34;179.30;2252.80
55365;DHT22;41245;45.384;20.390;2023-03-01T07:22:00;179.30;2252.80
55365;DHT22;41245;45.384;20.390;2023-03-01T07:24:26;179.50;2252.80
55365;DHT22;41245;45.384;20.390;2023-03-01T07:26:52;179.50;2252.80
55365;DHT22;41245;45.384;20.390;2023-03-01T07:29:18;179.30;2252.80
55365;DHT22;41245;45.384;20.390;2023-03-01T07:31:44;179.60;2252.80
55365;DHT22;41245;45.384;20.390;2023-03-01T07:34:10;179.80;2252.80
55365;DHT22;41245;45.384;20.390;2023-03-01T07:36:36;179.90;2252.80
55365;DHT22;41245;45.384;20.390;2023-03-01T07:39:02;179.80;2252.80
55365;DHT22;41245;45.384;20.390;2023-03-01T07:41:29;179.60;2252.80
55365;DHT22;41245;45.384;20.390;2023-03-01T07:43:55;179.80;2252.80
55365;DHT22;41245;45.384;20.390;2023-03-01T07:46:20;179.90;2252.80
55365;DHT22;41245;45.384;20.390;2023-03-01T07:48:46;180.00;2252.80
55365;DHT22;41245;45.384;20.390;2023-03-01T07:51:12;180.00;2252.80
55365;DHT22;41245;45.384;20.390;2023-03-01T07:53:38;180.10;2252.80
55365;DHT22;41245;45.384;20.390;2023-03-01T07:58:31;179.90;2252.80
55365;DHT22;41245;45.384;20.390;2023-03-01T08:01:01;179.60;2252.80
55365;DHT22;41245;45.384;20.390;2023-03-01T08:03:28;179.80;2252.80
55365;DHT22;41245;45.384;20.390;2023-03-01T08:05:54;180.00;2252.80
55365;DHT22;41245;45.384;20.390;2023-03-01T08:08:19;204.80;2252.80
55365;DHT22;41245;45.384;20.390;2023-03-01T08:10:45;180.10;2252.80
55365;DHT22;41245;45.384;20.390;2023-03-01T08:13:10;204.80;2252.80
55365;DHT22;41245;45.384;20.390;2023-03-01T08:15:36;205.20;2252.80
55365;DHT22;41245;45.384;20.390;2023-03-01T08:18:02;205.20;2252.80
55365;DHT22;41245;45.384;20.390;2023-03-01T08:20:27;205.00;2252.80
55365;DHT22;41245;45.384;20.390;2023-03-01T08:22:53;205.10;2252.80
55365;DHT22;41245;45.384;20.390;2023-03-01T08:25:18;205.20;2252.80
55365;DHT22;41245;45.384;20.390;2023-03-01T08:27:44;204.80;2252.80
55365;DHT22;41245;45.384;20.390;2023-03-01T08:30:10;205.10;2252.80
55365;DHT22;41245;45.384;20.390;2023-03-01T08:32:37;180.10;2252.80
55365;DHT22;41245;45.384;20.390;2023-03-01T08:35:04;204.80;2252.80
55365;DHT22;41245;45.384;20.390;2023-03-01T08:37:29;204.90;2252.80
55365;DHT22;41245;45.384;20.390;2023-03-01T08:39:56;204.90;2252.80
55365;DHT22;41245;45.384;20.390;2023-03-01T08:42:22;179.90;2252.80
55365;DHT22;41245;45.384;20.390;2023-03-01T08:44:47;204.80;2252.80
55365;DHT22;41245;45.384;20.390;2023-03-01T08:47:13;180.10;2252.80
55365;DHT22;41245;45.384;20.390;2023-03-01T08:49:39;180.00;2252.80
55365;DHT22;41245;45.384;20.390;2023-03-01T08:52:05;180.10;2252.80
55365;DHT22;41245;45.384;20.390;2023-03-01T08:54:30;205.00;2252.80
55365;DHT22;41245;45.384;20.390;2023-03-01T08:56:56;204.90;2252.80
55365;DHT22;41245;45.384;20.390;2023-03-01T08:59:25;205.20;2252.80
55365;DHT22;41245;45.384;20.390;2023-03-01T09:01:51;205.20;2252.80
55365;DHT22;41245;45.384;20.390;2023-03-01T09:04:17;205.30;2252.80
55365;DHT22;41245;45.384;20.390;2023-03-01T09:06:43;205.30;2252.80
55365;DHT22;41245;45.384;20.390;2023-03-01T09:09:14;205.50;2252.80
55365;DHT22;41245;45.384;20.390;2023-03-01T09:11:41;205.50;2252.80
55365;DHT22;41245;45.384;20.390;2023-03-01T09:14:07;230.40;2252.80
55365;DHT22;41245;45.384;20.390;2023-03-01T09:16:33;230.60;2252.80
55365;DHT22;41245;45.384;20.390;2023-03-01T09:19:01;205.70;2252.80
55365;DHT22;41245;45.384;20.390;2023-03-01T09:21:27;230.40;2252.80
55365;DHT22;41245;45.384;20.390;2023-03-01T09:23:53;205.70;2252.80
55365;DHT22;41245;45.384;20.390;2023-03-01T09:26:20;230.70;2252.80
55365;DHT22;41245;45.384;20.390;2023-03-01T09:28:52;230.80;2252.80
55365;DHT22;41245;45.384;20.390;2023-03-01T09:31:22;230.70;2252.80
55365;DHT22;41245;45.384;20.390;2023-03-01T09:33:51;230.90;2252.80
55365;DHT22;41245;45.384;20.390;2023-03-01T09:36:22;231.00;2252.80
55365;DHT22;41245;45.384;20.390;2023-03-01T09:38:49;231.20;2252.80
55365;DHT22;41245;45.384;20.390;2023-03-01T09:44:03;256.10;2252.80
55365;DHT22;41245;45.384;20.390;2023-03-01T09:46:37;256.30;2252.80
55365;DHT22;41245;45.384;20.390;2023-03-01T09:49:15;256.50;2252.80
55365;DHT22;41245;45.384;20.390;2023-03-01T09:51:43;256.60;2252.80
55365;DHT22;41245;45.384;20.390;2023-03-01T09:54:14;256.70;2252.80
55365;DHT22;41245;45.384;20.390;2023-03-01T09:56:44;256.70;2252.80
55365;DHT22;41245;45.384;20.390;2023-03-01T09:59:22;256.70;2252.80
55365;DHT22;41245;45.384;20.390;2023-03-01T11:54:13;307.20;2304.00
55365;DHT22;41245;45.384;20.390;2023-03-01T11:56:55;282.30;2278.40
55365;DHT22;41245;45.384;20.390;2023-03-01T12:10:26;282.40;2278.40
55365;DHT22;41245;45.384;20.390;2023-03-01T12:15:42;307.50;2304.00
55365;DHT22;41245;45.384;20.390;2023-03-01T12:23:53;307.50;2304.00
55365;DHT22;41245;45.384;20.390;2023-03-01T12:26:34;307.40;2304.00
55365;DHT22;41245;45.384;20.390;2023-03-01T16:25:41;256.50;2252.80
55365;DHT22;41245;45.384;20.390;2023-03-01T16:28:07;256.20;2252.80
